createdAt,value
2023-05-21T00:02:00.147Z,101440.80
2023-05-21T00:04:29.835Z,101445.00
2023-05-21T00:07:00.945Z,101444.60
2023-05-21T00:09:28.782Z,101446.60
2023-05-21T00:11:56.675Z,101442.20
2023-05-21T00:14:24.562Z,101446.20
2023-05-21T00:16:52.792Z,101448.80
2023-05-21T00:19:20.796Z,101452.40
2023-05-21T00:21:48.769Z,101449.60
2023-05-21T00:24:17.515Z,101449.60
2023-05-21T00:26:45.377Z,101449.80
2023-05-21T00:29:13.191Z,101435.40
2023-05-21T00:31:41.262Z,101436.20
2023-05-21T00:34:09.124Z,101431.40
2023-05-21T00:36:36.936Z,101427.60
2023-05-21T00:39:05.224Z,101425.20
2023-05-21T00:41:35.297Z,101426.80
2023-05-21T00:44:03.265Z,101425.60
2023-05-21T00:46:31.275Z,101422.60
2023-05-21T00:49:00.987Z,101425.00
2023-05-21T00:51:30.446Z,101427.40
2023-05-21T00:53:58.850Z,101429.20
2023-05-21T00:56:27.605Z,101428.60
2023-05-21T00:58:59.924Z,101430.60
2023-05-21T01:01:27.966Z,101426.00
2023-05-21T01:03:58.039Z,101425.20
2023-05-21T01:06:26.251Z,101429.80
2023-05-21T01:08:56.357Z,101433.00
2023-05-21T01:11:39.003Z,101429.40
2023-05-21T01:14:09.410Z,101429.20
2023-05-21T01:16:39.563Z,101426.00
2023-05-21T01:19:11.666Z,101426.20
2023-05-21T01:21:48.378Z,101428.60
2023-05-21T01:24:16.780Z,101430.40
2023-05-21T01:26:46.533Z,101429.60
2023-05-21T01:29:14.848Z,101426.80
2023-05-21T01:32:07.007Z,101428.60
2023-05-21T01:34:48.031Z,101426.60
2023-05-21T01:37:31.785Z,101424.00
2023-05-21T01:40:39.543Z,101421.80
2023-05-21T01:43:09.423Z,101421.20
2023-05-21T01:45:42.920Z,101422.40
2023-05-21T01:48:13.451Z,101417.60
2023-05-21T01:50:44.778Z,101414.20
2023-05-21T01:53:12.856Z,101420.40
2023-05-21T01:55:42.039Z,101420.40
2023-05-21T01:58:10.630Z,101425.00
2023-05-21T02:00:40.052Z,101422.80
2023-05-21T02:03:09.068Z,101428.60
2023-05-21T02:05:37.426Z,101427.60
2023-05-21T02:08:05.524Z,101430.20
2023-05-21T02:10:34.102Z,101428.00
2023-05-21T02:13:02.346Z,101427.40
2023-05-21T02:15:30.433Z,101423.60
2023-05-21T02:17:58.425Z,101423.80
2023-05-21T02:20:26.435Z,101423.80
2023-05-21T02:22:54.746Z,101421.60
2023-05-21T02:25:22.634Z,101419.80
2023-05-21T02:27:53.709Z,101419.20
2023-05-21T02:30:21.659Z,101419.20
2023-05-21T02:32:49.913Z,101421.40
2023-05-21T02:35:17.893Z,101417.40
2023-05-21T02:37:46.011Z,101419.80
2023-05-21T02:40:13.980Z,101421.40
2023-05-21T02:42:42.340Z,101421.80
2023-05-21T02:45:12.853Z,101422.40
2023-05-21T02:47:42.879Z,101422.20
2023-05-21T02:50:11.186Z,101418.80
2023-05-21T02:52:44.734Z,101413.40
2023-05-21T02:55:12.518Z,101415.20
2023-05-21T02:57:40.492Z,101409.60
2023-05-21T03:00:09.943Z,101412.80
2023-05-21T03:02:38.204Z,101406.20
2023-05-21T03:05:07.432Z,101413.20
2023-05-21T03:07:35.285Z,101405.20
2023-05-21T03:10:03.277Z,101403.00
2023-05-21T03:12:31.188Z,101393.20
2023-05-21T03:15:00.878Z,101389.00
2023-05-21T03:17:29.080Z,101391.20
2023-05-21T03:19:56.981Z,101394.20
2023-05-21T03:22:24.811Z,101393.40
2023-05-21T03:24:53.488Z,101394.40
2023-05-21T03:27:21.471Z,101391.00
2023-05-21T03:29:50.126Z,101385.40
2023-05-21T03:32:18.185Z,101386.80
2023-05-21T03:34:47.163Z,101382.00
2023-05-21T03:37:16.124Z,101378.60
2023-05-21T03:39:44.031Z,101382.00
2023-05-21T03:42:14.042Z,101373.40
2023-05-21T03:44:51.283Z,101376.20
2023-05-21T03:47:50.690Z,101382.60
2023-05-21T03:50:18.612Z,101387.60
2023-05-21T03:52:46.564Z,101386.20
2023-05-21T03:55:14.505Z,101389.00
2023-05-21T03:57:42.875Z,101383.40
2023-05-21T04:00:11.309Z,101382.40
2023-05-21T04:02:45.304Z,101383.80
2023-05-21T04:05:14.743Z,101380.00
2023-05-21T04:07:43.002Z,101385.40
2023-05-21T04:10:10.971Z,101395.60
2023-05-21T04:12:38.848Z,101396.40
2023-05-21T04:15:07.697Z,101398.20
2023-05-21T04:17:36.236Z,101406.60
2023-05-21T04:20:05.110Z,101402.20
2023-05-21T04:22:33.739Z,101402.80
2023-05-21T04:25:02.328Z,101408.40
2023-05-21T04:27:36.757Z,101412.40
2023-05-21T04:30:05.532Z,101407.40
2023-05-21T04:32:35.054Z,101404.60
2023-05-21T04:35:04.283Z,101408.40
2023-05-21T04:37:35.299Z,101409.00
2023-05-21T04:40:03.945Z,101407.20
2023-05-21T04:42:33.050Z,101412.80
2023-05-21T04:45:01.228Z,101415.60
2023-05-21T04:47:35.438Z,101414.00
2023-05-21T04:50:05.258Z,101412.20
2023-05-21T04:52:34.771Z,101414.60
2023-05-21T04:55:03.788Z,101414.00
2023-05-21T04:57:31.637Z,101418.00
2023-05-21T05:00:00.523Z,101412.40
2023-05-21T05:02:28.749Z,101413.20
2023-05-21T05:04:56.794Z,101417.00
2023-05-21T05:07:24.980Z,101422.00
2023-05-21T05:09:53.278Z,101421.00
2023-05-21T05:12:21.216Z,101424.20
2023-05-21T05:14:49.186Z,101416.60
2023-05-21T05:17:17.253Z,101420.20
2023-05-21T05:19:45.085Z,101415.20
2023-05-21T05:22:13.686Z,101407.40
2023-05-21T05:24:42.714Z,101407.00
2023-05-21T05:27:10.550Z,101407.40
2023-05-21T05:29:39.261Z,101399.60
2023-05-21T05:32:07.916Z,101399.00
2023-05-21T05:34:35.746Z,101394.40
2023-05-21T05:37:04.266Z,101399.20
2023-05-21T05:39:32.279Z,101397.20
2023-05-21T05:42:01.653Z,101393.60
2023-05-21T05:44:29.744Z,101391.60
2023-05-21T05:46:57.946Z,101392.80
2023-05-21T05:49:26.070Z,101388.20
2023-05-21T05:51:54.012Z,101388.20
2023-05-21T05:54:22.460Z,101388.60
2023-05-21T05:56:50.465Z,101387.80
2023-05-21T05:59:18.659Z,101381.40
2023-05-21T06:01:48.710Z,101375.40
2023-05-21T06:04:17.125Z,101374.40
2023-05-21T06:06:45.056Z,101371.40
2023-05-21T06:09:13.011Z,101375.00
2023-05-21T06:11:41.048Z,101367.80
2023-05-21T06:14:08.969Z,101368.40
2023-05-21T06:16:37.409Z,101383.00
2023-05-21T06:19:05.599Z,101382.60
2023-05-21T06:21:33.856Z,101382.60
2023-05-21T06:24:02.911Z,101383.60
2023-05-21T06:26:30.865Z,101382.80
2023-05-21T06:28:59.343Z,101378.20
2023-05-21T06:31:28.008Z,101381.20
2023-05-21T06:33:56.279Z,101380.40
2023-05-21T06:36:29.629Z,101376.80
2023-05-21T06:38:57.692Z,101378.40
2023-05-21T06:41:26.393Z,101379.20
2023-05-21T06:43:57.202Z,101366.40
2023-05-21T06:46:44.132Z,101365.20
2023-05-21T06:49:14.483Z,101362.20
2023-05-21T06:51:43.025Z,101365.20
2023-05-21T06:54:11.791Z,101367.40
2023-05-21T06:56:40.632Z,101371.40
2023-05-21T06:59:09.316Z,101365.20
2023-05-21T07:01:42.404Z,101367.00
2023-05-21T07:04:11.203Z,101363.80
2023-05-21T07:06:39.376Z,101365.60
2023-05-21T07:09:07.300Z,101362.40
2023-05-21T07:11:36.124Z,101364.60
2023-05-21T07:14:04.297Z,101356.80
2023-05-21T07:16:33.667Z,101350.00
2023-05-21T07:19:01.636Z,101345.80
2023-05-21T07:21:29.618Z,101350.00
2023-05-21T07:23:57.561Z,101357.40
2023-05-21T07:26:26.337Z,101356.60
2023-05-21T07:28:54.316Z,101353.40
2023-05-21T07:31:22.220Z,101354.60
2023-05-21T07:33:51.692Z,101351.60
2023-05-21T07:36:20.029Z,101358.60
2023-05-21T07:38:47.938Z,101356.20
2023-05-21T07:41:18.433Z,101360.40
2023-05-21T07:43:46.843Z,101360.80
2023-05-21T07:46:15.093Z,101361.60
2023-05-21T07:48:43.654Z,101362.40
2023-05-21T07:51:12.181Z,101364.60
2023-05-21T07:53:40.104Z,101361.80
2023-05-21T07:56:10.211Z,101367.80
2023-05-21T07:58:38.114Z,101371.40
2023-05-21T08:01:06.367Z,101364.80
2023-05-21T08:03:34.343Z,101368.60
2023-05-21T08:06:03.489Z,101369.00
2023-05-21T08:08:31.509Z,101363.60
2023-05-21T08:10:59.574Z,101372.20
2023-05-21T08:13:27.880Z,101364.00
2023-05-21T08:15:56.437Z,101358.20
2023-05-21T08:18:25.478Z,101354.60
2023-05-21T08:20:55.808Z,101353.60
2023-05-21T08:23:25.147Z,101357.00
2023-05-21T08:25:58.993Z,101357.00
2023-05-21T08:28:28.843Z,101354.80
2023-05-21T08:30:57.477Z,101363.60
2023-05-21T08:33:25.695Z,101361.80
2023-05-21T08:35:53.757Z,101356.80
2023-05-21T08:38:30.242Z,101355.20
2023-05-21T08:41:26.982Z,101354.40
2023-05-21T08:43:57.809Z,101359.20
2023-05-21T08:46:33.139Z,101358.80
2023-05-21T08:49:03.694Z,101360.00
2023-05-21T08:51:32.046Z,101361.80
2023-05-21T08:54:02.455Z,101363.00
2023-05-21T08:56:32.605Z,101364.80
2023-05-21T08:59:02.228Z,101369.60
2023-05-21T09:01:34.650Z,101373.80
2023-05-21T09:04:21.377Z,101370.00
2023-05-21T09:06:52.008Z,101364.20
2023-05-21T09:09:34.206Z,101358.80
2023-05-21T09:12:02.665Z,101358.40
2023-05-21T09:14:31.986Z,101354.40
2023-05-21T09:17:20.498Z,101361.20
2023-05-21T09:20:16.414Z,101358.60
2023-05-21T09:22:51.504Z,101355.40
2023-05-21T09:25:29.892Z,101358.80
2023-05-21T09:28:00.619Z,101352.80
2023-05-21T09:30:34.120Z,101351.60
2023-05-21T09:33:04.055Z,101348.60
2023-05-21T09:35:34.233Z,101348.60
2023-05-21T09:38:09.270Z,101351.60
2023-05-21T09:40:37.635Z,101351.20
2023-05-21T09:43:05.807Z,101344.80
2023-05-21T09:45:34.961Z,101345.40
2023-05-21T09:48:03.137Z,101346.40
2023-05-21T09:50:36.101Z,101339.40
2023-05-21T09:53:14.258Z,101338.20
2023-05-21T09:55:42.199Z,101333.60
2023-05-21T09:58:10.853Z,101325.60
2023-05-21T10:00:39.503Z,101325.00
2023-05-21T10:03:13.817Z,101328.20
2023-05-21T10:05:42.712Z,101326.60
2023-05-21T10:08:13.127Z,101332.40
2023-05-21T10:10:43.191Z,101328.60
2023-05-21T10:13:14.808Z,101321.20
2023-05-21T10:15:51.026Z,101323.60
2023-05-21T10:18:21.569Z,101326.20
2023-05-21T10:20:50.266Z,101321.20
2023-05-21T10:23:19.093Z,101322.20
2023-05-21T10:25:49.251Z,101318.40
2023-05-21T10:28:18.309Z,101318.80
2023-05-21T10:30:46.777Z,101319.40
2023-05-21T10:33:19.139Z,101321.20
2023-05-21T10:35:51.473Z,101322.60
2023-05-21T10:38:21.298Z,101319.40
2023-05-21T10:40:50.054Z,101318.20
2023-05-21T10:43:45.849Z,101314.20
2023-05-21T10:47:13.336Z,101312.00
2023-05-21T10:50:06.360Z,101313.20
2023-05-21T10:52:48.744Z,101308.20
2023-05-21T10:55:47.463Z,101308.40
2023-05-21T10:58:40.156Z,101309.80
2023-05-21T11:01:08.542Z,101307.00
2023-05-21T11:03:38.030Z,101313.00
2023-05-21T11:06:06.551Z,101311.60
2023-05-21T11:08:38.791Z,101312.00
2023-05-21T11:11:06.776Z,101313.80
2023-05-21T11:13:51.484Z,101309.20
2023-05-21T11:16:22.129Z,101306.80
2023-05-21T11:18:50.034Z,101304.20
2023-05-21T11:21:22.372Z,101307.20
2023-05-21T11:23:59.446Z,101302.00
2023-05-21T11:26:30.922Z,101303.40
2023-05-21T11:29:04.392Z,101303.60
2023-05-21T11:31:38.615Z,101298.00
2023-05-21T11:34:28.690Z,101298.00
2023-05-21T11:37:18.282Z,101306.40
2023-05-21T11:39:50.509Z,101292.60
2023-05-21T11:42:33.466Z,101290.80
2023-05-21T11:45:04.201Z,101294.20
2023-05-21T11:47:32.876Z,101296.20
2023-05-21T11:50:03.566Z,101300.60
2023-05-21T11:52:32.922Z,101293.60
2023-05-21T11:55:01.133Z,101288.40
2023-05-21T11:57:32.638Z,101292.40
2023-05-21T12:00:08.543Z,101293.60
2023-05-21T12:02:47.415Z,101290.20
2023-05-21T12:05:15.812Z,101292.80
2023-05-21T12:07:51.416Z,101289.80
2023-05-21T12:10:23.724Z,101292.20
2023-05-21T12:12:56.521Z,101284.20
2023-05-21T12:15:26.938Z,101279.80
2023-05-21T12:17:56.029Z,101280.80
2023-05-21T12:20:27.098Z,101274.00
2023-05-21T12:22:54.901Z,101276.00
2023-05-21T12:25:23.018Z,101269.60
2023-05-21T12:27:58.647Z,101265.20
2023-05-21T12:30:27.207Z,101258.00
2023-05-21T12:32:58.902Z,101267.00
2023-05-21T12:35:26.902Z,101261.80
2023-05-21T12:37:54.790Z,101249.40
2023-05-21T12:40:30.223Z,101243.60
2023-05-21T12:42:58.147Z,101242.40
2023-05-21T12:45:26.560Z,101230.20
2023-05-21T12:47:56.489Z,101230.60
2023-05-21T12:50:24.538Z,101230.60
2023-05-21T12:52:56.288Z,101232.80
2023-05-21T12:55:28.718Z,101229.40
2023-05-21T12:58:08.831Z,101228.80
2023-05-21T13:00:37.985Z,101228.80
2023-05-21T13:03:06.729Z,101223.20
2023-05-21T13:05:35.871Z,101215.40
2023-05-21T13:08:04.019Z,101209.00
2023-05-21T13:10:31.860Z,101218.40
2023-05-21T13:13:00.207Z,101224.40
2023-05-21T13:15:28.107Z,101227.00
2023-05-21T13:17:57.933Z,101225.00
2023-05-21T13:20:27.592Z,101216.40
2023-05-21T13:22:55.790Z,101220.00
2023-05-21T13:25:29.096Z,101241.00
2023-05-21T13:27:59.330Z,101240.00
2023-05-21T13:30:27.192Z,101237.80
2023-05-21T13:32:55.750Z,101237.80
2023-05-21T13:35:23.775Z,101238.00
2023-05-21T13:37:51.784Z,101236.20
2023-05-21T13:40:20.204Z,101243.20
2023-05-21T13:42:50.141Z,101232.80
2023-05-21T13:45:20.945Z,101216.60
2023-05-21T13:47:49.201Z,101233.60
2023-05-21T13:50:17.584Z,101240.20
2023-05-21T13:52:46.262Z,101230.40
2023-05-21T13:55:15.991Z,101233.40
2023-05-21T13:57:44.369Z,101227.80
2023-05-21T14:00:15.673Z,101227.00
2023-05-21T14:02:44.381Z,101229.60
2023-05-21T14:05:13.293Z,101235.80
2023-05-21T14:07:42.122Z,101233.40
2023-05-21T14:10:10.622Z,101228.60
2023-05-21T14:12:38.867Z,101231.60
2023-05-21T14:15:07.730Z,101234.80
2023-05-21T14:17:35.991Z,101235.80
2023-05-21T14:20:04.150Z,101234.40
2023-05-21T14:22:31.990Z,101234.20
2023-05-21T14:24:59.845Z,101234.20
2023-05-21T14:27:27.733Z,101231.60
2023-05-21T14:29:55.684Z,101227.20
2023-05-21T14:32:23.662Z,101223.40
2023-05-21T14:34:51.508Z,101229.00
2023-05-21T14:37:19.833Z,101233.00
2023-05-21T14:39:48.384Z,101232.80
2023-05-21T14:42:16.264Z,101234.60
2023-05-21T14:44:44.030Z,101232.20
2023-05-21T14:47:11.805Z,101228.80
2023-05-21T14:49:39.669Z,101222.00
2023-05-21T14:52:07.672Z,101219.20
2023-05-21T14:54:36.328Z,101217.40
2023-05-21T14:57:04.483Z,101226.00
2023-05-21T14:59:32.538Z,101215.00
2023-05-21T15:02:00.479Z,101215.00
2023-05-21T15:04:28.422Z,101216.80
2023-05-21T15:06:56.304Z,101217.80
2023-05-21T15:09:24.574Z,101221.60
2023-05-21T15:11:53.645Z,101206.60
2023-05-21T15:14:21.529Z,101210.00
2023-05-21T15:16:49.526Z,101205.00
2023-05-21T15:19:17.616Z,101202.60
2023-05-21T15:21:45.533Z,101210.60
2023-05-21T15:24:13.484Z,101202.00
2023-05-21T15:26:41.376Z,101204.20
2023-05-21T15:29:09.262Z,101202.80
2023-05-21T15:31:39.491Z,101202.60
2023-05-21T15:34:07.575Z,101193.60
2023-05-21T15:36:36.636Z,101194.00
2023-05-21T15:39:06.342Z,101193.60
2023-05-21T15:41:37.502Z,101189.60
2023-05-21T15:44:05.381Z,101194.40
2023-05-21T15:46:33.633Z,101189.80
2023-05-21T15:49:01.626Z,101184.00
2023-05-21T15:51:29.549Z,101179.80
2023-05-21T15:53:59.728Z,101177.40
2023-05-21T15:56:27.858Z,101179.20
2023-05-21T15:58:58.519Z,101188.40
2023-05-21T16:01:27.585Z,101176.80
2023-05-21T16:03:56.001Z,101182.00
2023-05-21T16:06:24.421Z,101179.40
2023-05-21T16:08:52.249Z,101178.20
2023-05-21T16:11:20.305Z,101177.20
2023-05-21T16:13:48.195Z,101176.60
2023-05-21T16:16:16.298Z,101179.60
2023-05-21T16:18:44.346Z,101182.20
2023-05-21T16:21:12.357Z,101181.80
2023-05-21T16:23:40.584Z,101181.20
2023-05-21T16:26:10.551Z,101185.60
2023-05-21T16:28:38.655Z,101178.40
2023-05-21T16:31:06.596Z,101186.80
2023-05-21T16:33:34.880Z,101179.40
2023-05-21T16:36:02.793Z,101180.40
2023-05-21T16:38:31.493Z,101177.40
2023-05-21T16:40:59.425Z,101177.80
2023-05-21T16:43:27.434Z,101179.00
2023-05-21T16:45:55.628Z,101185.40
2023-05-21T16:48:23.622Z,101181.20
2023-05-21T16:50:51.426Z,101186.60
2023-05-21T16:53:19.249Z,101193.60
2023-05-21T16:55:47.345Z,101186.60
2023-05-21T16:58:15.742Z,101193.80
2023-05-21T17:00:43.652Z,101188.40
2023-05-21T17:03:12.778Z,101193.20
2023-05-21T17:05:40.815Z,101191.20
2023-05-21T17:08:08.942Z,101193.40
2023-05-21T17:10:37.046Z,101196.40
2023-05-21T17:13:17.515Z,101201.40
2023-05-21T17:15:49.736Z,101194.40
2023-05-21T17:18:17.820Z,101190.00
2023-05-21T17:20:45.777Z,101190.60
2023-05-21T17:23:13.828Z,101198.00
2023-05-21T17:25:41.915Z,101194.00
2023-05-21T17:28:09.939Z,101192.60
2023-05-21T17:30:37.805Z,101198.00
2023-05-21T17:33:06.623Z,101197.40
2023-05-21T17:35:34.909Z,101200.40
2023-05-21T17:38:02.907Z,101198.60
2023-05-21T17:40:31.003Z,101201.20
2023-05-21T17:42:58.876Z,101207.20
2023-05-21T17:45:26.942Z,101200.40
2023-05-21T17:47:59.604Z,101203.80
2023-05-21T17:50:28.349Z,101203.20
2023-05-21T17:52:56.210Z,101208.80
2023-05-21T17:55:24.046Z,101206.80
2023-05-21T17:57:52.085Z,101212.20
2023-05-21T18:00:20.644Z,101204.60
2023-05-21T18:02:49.477Z,101211.40
2023-05-21T18:05:17.562Z,101209.40
2023-05-21T18:07:45.470Z,101215.00
2023-05-21T18:10:15.366Z,101215.60
2023-05-21T18:12:46.145Z,101218.20
2023-05-21T18:15:15.020Z,101216.40
2023-05-21T18:17:43.060Z,101219.20
2023-05-21T18:20:12.164Z,101216.20
2023-05-21T18:22:40.027Z,101221.20
2023-05-21T18:25:09.022Z,101213.80
2023-05-21T18:27:37.174Z,101210.80
2023-05-21T18:30:07.039Z,101212.80
2023-05-21T18:32:38.893Z,101212.80
2023-05-21T18:35:11.473Z,101213.40
2023-05-21T18:37:44.791Z,101211.00
2023-05-21T18:40:14.045Z,101209.40
2023-05-21T18:42:43.160Z,101210.80
2023-05-21T18:45:12.970Z,101212.00
2023-05-21T18:47:42.929Z,101220.40
2023-05-21T18:50:13.809Z,101220.20
2023-05-21T18:52:41.888Z,101223.80
2023-05-21T18:55:10.218Z,101218.20
2023-05-21T18:57:39.643Z,101214.40
2023-05-21T19:00:09.764Z,101219.00
2023-05-21T19:02:38.071Z,101225.40
2023-05-21T19:05:07.647Z,101225.00
2023-05-21T19:07:36.509Z,101228.00
2023-05-21T19:10:05.074Z,101220.80
2023-05-21T19:12:34.128Z,101225.20
2023-05-21T19:15:06.605Z,101227.00
2023-05-21T19:17:36.197Z,101234.60
2023-05-21T19:20:05.424Z,101232.20
2023-05-21T19:22:33.857Z,101233.00
2023-05-21T19:25:01.945Z,101240.40
2023-05-21T19:27:29.802Z,101239.40
2023-05-21T19:29:58.390Z,101243.40
2023-05-21T19:32:27.477Z,101247.00
2023-05-21T19:34:57.410Z,101243.40
2023-05-21T19:37:25.333Z,101241.80
2023-05-21T19:39:54.081Z,101247.40
2023-05-21T19:42:22.306Z,101248.80
2023-05-21T19:44:50.528Z,101247.60
2023-05-21T19:47:18.965Z,101251.40
2023-05-21T19:49:46.782Z,101247.00
2023-05-21T19:52:14.671Z,101251.80
2023-05-21T19:54:43.229Z,101250.00
2023-05-21T19:57:13.222Z,101252.60
2023-05-21T19:59:41.146Z,101247.40
2023-05-21T20:02:13.287Z,101247.00
2023-05-21T20:04:41.169Z,101259.00
2023-05-21T20:07:09.104Z,101256.00
2023-05-21T20:09:37.455Z,101261.40
2023-05-21T20:12:06.122Z,101254.00
2023-05-21T20:14:34.765Z,101257.40
2023-05-21T20:17:05.636Z,101257.60
2023-05-21T20:19:34.701Z,101266.40
2023-05-21T20:22:02.692Z,101267.00
2023-05-21T20:24:30.707Z,101270.80
2023-05-21T20:26:58.515Z,101270.80
2023-05-21T20:29:26.484Z,101268.20
2023-05-21T20:31:54.369Z,101264.60
2023-05-21T20:34:22.971Z,101269.00
2023-05-21T20:36:52.245Z,101272.60
2023-05-21T20:39:22.930Z,101270.60
2023-05-21T20:41:50.812Z,101281.00
2023-05-21T20:44:18.820Z,101284.00
2023-05-21T20:46:47.820Z,101284.20
2023-05-21T20:49:15.772Z,101288.60
2023-05-21T20:51:43.818Z,101283.60
2023-05-21T20:54:11.808Z,101283.00
2023-05-21T20:56:42.651Z,101286.60
2023-05-21T20:59:12.091Z,101286.00
2023-05-21T21:01:40.729Z,101288.00
2023-05-21T21:04:09.504Z,101282.40
2023-05-21T21:06:38.565Z,101284.80
2023-05-21T21:09:06.592Z,101282.60
2023-05-21T21:11:34.870Z,101282.40
2023-05-21T21:14:03.211Z,101279.80
2023-05-21T21:16:31.204Z,101283.00
2023-05-21T21:18:59.263Z,101278.00
2023-05-21T21:21:27.997Z,101275.80
2023-05-21T21:23:55.860Z,101276.20
2023-05-21T21:26:24.180Z,101278.00
2023-05-21T21:28:51.966Z,101278.20
2023-05-21T21:31:20.005Z,101276.00
2023-05-21T21:33:47.976Z,101280.00
2023-05-21T21:36:16.104Z,101279.40
2023-05-21T21:38:43.906Z,101278.20
2023-05-21T21:41:12.180Z,101281.20
2023-05-21T21:43:40.131Z,101279.20
2023-05-21T21:46:08.002Z,101279.60
2023-05-21T21:48:35.861Z,101277.80
2023-05-21T21:51:03.932Z,101279.00
2023-05-21T21:53:31.864Z,101284.40
2023-05-21T21:55:59.836Z,101281.80
2023-05-21T21:58:27.668Z,101283.00
2023-05-21T22:00:55.585Z,101277.60
2023-05-21T22:03:23.397Z,101277.60
2023-05-21T22:05:51.769Z,101278.00
2023-05-21T22:08:19.810Z,101277.00
2023-05-21T22:10:47.634Z,101267.80
2023-05-21T22:13:15.766Z,101269.20
2023-05-21T22:15:43.653Z,101267.60
2023-05-21T22:18:12.123Z,101267.60
2023-05-21T22:20:40.582Z,101258.00
2023-05-21T22:23:08.519Z,101256.00
2023-05-21T22:25:36.344Z,101254.40
2023-05-21T22:28:04.395Z,101253.00
2023-05-21T22:30:32.682Z,101254.80
2023-05-21T22:33:00.624Z,101249.20
2023-05-21T22:35:28.567Z,101248.00
2023-05-21T22:37:56.380Z,101245.20
2023-05-21T22:40:24.757Z,101244.60
2023-05-21T22:42:52.661Z,101241.00
2023-05-21T22:45:21.844Z,101234.20
2023-05-21T22:47:51.915Z,101228.80
2023-05-21T22:50:19.942Z,101231.00
2023-05-21T22:52:47.833Z,101223.00
2023-05-21T22:55:16.454Z,101230.00
2023-05-21T22:57:44.704Z,101230.40
2023-05-21T23:00:13.011Z,101228.20
2023-05-21T23:02:40.929Z,101221.00
2023-05-21T23:05:09.220Z,101219.20
2023-05-21T23:07:37.268Z,101216.80
2023-05-21T23:10:05.904Z,101215.40
2023-05-21T23:12:33.887Z,101218.40
2023-05-21T23:15:05.083Z,101212.80
2023-05-21T23:17:33.393Z,101215.20
2023-05-21T23:20:01.350Z,101213.40
2023-05-21T23:22:30.014Z,101219.80
2023-05-21T23:24:57.940Z,101212.60
2023-05-21T23:27:25.882Z,101215.20
2023-05-21T23:29:53.752Z,101208.00
2023-05-21T23:32:23.233Z,101208.40
2023-05-21T23:34:51.125Z,101206.40
2023-05-21T23:37:19.167Z,101199.00
2023-05-21T23:39:49.709Z,101201.40
2023-05-21T23:42:18.385Z,101202.80
2023-05-21T23:44:46.277Z,101202.00
2023-05-21T23:47:14.272Z,101204.80
2023-05-21T23:49:42.156Z,101207.40
2023-05-21T23:52:10.058Z,101200.40
2023-05-21T23:54:37.856Z,101195.40
2023-05-21T23:57:06.330Z,101196.60
2023-05-21T23:59:34.260Z,101192.80
